sensor_id;sensor_type;location;lat;lon;timestamp;temperature;humidity
52799;DHT22;38667;42.872;74.622;2023-12-04T00:00:51;10.40;54.10
52799;DHT22;38667;42.872;74.622;2023-12-04T00:03:18;10.40;53.90
52799;DHT22;38667;42.872;74.622;2023-12-04T00:05:44;10.40;53.70
52799;DHT22;38667;42.872;74.622;2023-12-04T00:08:11;10.40;53.70
52799;DHT22;38667;42.872;74.622;2023-12-04T00:10:37;10.40;53.70
52799;DHT22;38667;42.872;74.622;2023-12-04T00:13:03;10.40;53.80
52799;DHT22;38667;42.872;74.622;2023-12-04T00:15:31;10.40;53.70
52799;DHT22;38667;42.872;74.622;2023-12-04T00:17:57;10.50;54.00
52799;DHT22;38667;42.872;74.622;2023-12-04T00:20:24;10.40;53.90
52799;DHT22;38667;42.872;74.622;2023-12-04T00:22:50;10.40;53.90
52799;DHT22;38667;42.872;74.622;2023-12-04T00:25:16;10.40;54.10
52799;DHT22;38667;42.872;74.622;2023-12-04T00:27:43;10.40;54.10
52799;DHT22;38667;42.872;74.622;2023-12-04T00:30:10;10.50;54.40
52799;DHT22;38667;42.872;74.622;2023-12-04T00:32:37;10.50;54.20
52799;DHT22;38667;42.872;74.622;2023-12-04T00:35:04;10.50;54.60
52799;DHT22;38667;42.872;74.622;2023-12-04T00:37:31;10.50;54.30
52799;DHT22;38667;42.872;74.622;2023-12-04T00:39:57;10.40;54.30
52799;DHT22;38667;42.872;74.622;2023-12-04T00:42:23;10.50;54.60
52799;DHT22;38667;42.872;74.622;2023-12-04T00:44:50;10.40;55.60
52799;DHT22;38667;42.872;74.622;2023-12-04T00:47:16;10.50;54.90
52799;DHT22;38667;42.872;74.622;2023-12-04T00:49:44;10.50;54.60
52799;DHT22;38667;42.872;74.622;2023-12-04T00:52:11;10.50;54.30
52799;DHT22;38667;42.872;74.622;2023-12-04T00:54:39;10.50;54.80
52799;DHT22;38667;42.872;74.622;2023-12-04T00:57:05;10.60;54.90
52799;DHT22;38667;42.872;74.622;2023-12-04T00:59:32;10.60;54.20
52799;DHT22;38667;42.872;74.622;2023-12-04T01:01:58;10.60;54.50
52799;DHT22;38667;42.872;74.622;2023-12-04T01:04:24;10.60;55.20
52799;DHT22;38667;42.872;74.622;2023-12-04T01:06:52;10.50;55.50
52799;DHT22;38667;42.872;74.622;2023-12-04T01:09:19;10.50;56.40
52799;DHT22;38667;42.872;74.622;2023-12-04T01:11:45;10.40;56.20
52799;DHT22;38667;42.872;74.622;2023-12-04T01:14:11;10.30;56.90
52799;DHT22;38667;42.872;74.622;2023-12-04T01:16:38;10.30;57.30
52799;DHT22;38667;42.872;74.622;2023-12-04T01:19:04;10.20;57.30
52799;DHT22;38667;42.872;74.622;2023-12-04T01:21:30;10.20;57.20
52799;DHT22;38667;42.872;74.622;2023-12-04T01:23:58;10.20;55.70
52799;DHT22;38667;42.872;74.622;2023-12-04T01:26:25;10.40;55.70
52799;DHT22;38667;42.872;74.622;2023-12-04T01:28:51;10.40;55.80
52799;DHT22;38667;42.872;74.622;2023-12-04T01:31:17;10.50;55.80
52799;DHT22;38667;42.872;74.622;2023-12-04T01:33:44;10.40;56.30
52799;DHT22;38667;42.872;74.622;2023-12-04T01:36:10;10.30;56.70
52799;DHT22;38667;42.872;74.622;2023-12-04T01:38:37;10.30;57.00
52799;DHT22;38667;42.872;74.622;2023-12-04T01:41:06;10.40;57.30
52799;DHT22;38667;42.872;74.622;2023-12-04T01:43:32;10.40;57.50
52799;DHT22;38667;42.872;74.622;2023-12-04T01:46:00;10.30;57.40
52799;DHT22;38667;42.872;74.622;2023-12-04T01:48:27;10.20;57.50
52799;DHT22;38667;42.872;74.622;2023-12-04T01:50:55;10.20;57.50
52799;DHT22;38667;42.872;74.622;2023-12-04T01:53:23;10.10;58.10
52799;DHT22;38667;42.872;74.622;2023-12-04T01:55:49;10.10;58.50
52799;DHT22;38667;42.872;74.622;2023-12-04T01:58:18;10.10;58.40
52799;DHT22;38667;42.872;74.622;2023-12-04T02:07:41;9.90;58.80
52799;DHT22;38667;42.872;74.622;2023-12-04T02:10:08;9.90;59.00
52799;DHT22;38667;42.872;74.622;2023-12-04T02:12:34;9.90;59.70
52799;DHT22;38667;42.872;74.622;2023-12-04T02:15:00;10.00;59.90
52799;DHT22;38667;42.872;74.622;2023-12-04T02:17:28;9.90;59.90
52799;DHT22;38667;42.872;74.622;2023-12-04T02:19:55;9.90;59.90
52799;DHT22;38667;42.872;74.622;2023-12-04T02:22:21;9.90;59.70
52799;DHT22;38667;42.872;74.622;2023-12-04T02:24:49;9.90;59.50
52799;DHT22;38667;42.872;74.622;2023-12-04T02:27:17;9.90;59.80
52799;DHT22;38667;42.872;74.622;2023-12-04T02:29:47;9.90;60.60
52799;DHT22;38667;42.872;74.622;2023-12-04T02:32:19;9.90;59.90
52799;DHT22;38667;42.872;74.622;2023-12-04T02:34:47;9.90;60.00
52799;DHT22;38667;42.872;74.622;2023-12-04T02:37:15;9.90;60.30
52799;DHT22;38667;42.872;74.622;2023-12-04T02:39:42;9.80;60.10
52799;DHT22;38667;42.872;74.622;2023-12-04T02:42:12;9.90;60.10
52799;DHT22;38667;42.872;74.622;2023-12-04T02:44:38;9.90;60.70
52799;DHT22;38667;42.872;74.622;2023-12-04T02:47:04;9.80;61.10
52799;DHT22;38667;42.872;74.622;2023-12-04T02:49:31;9.80;60.80
52799;DHT22;38667;42.872;74.622;2023-12-04T02:51:57;9.80;60.90
52799;DHT22;38667;42.872;74.622;2023-12-04T02:54:23;9.80;60.90
52799;DHT22;38667;42.872;74.622;2023-12-04T02:56:50;9.80;60.40
52799;DHT22;38667;42.872;74.622;2023-12-04T02:59:18;9.90;60.50
52799;DHT22;38667;42.872;74.622;2023-12-04T03:01:44;9.90;60.90
52799;DHT22;38667;42.872;74.622;2023-12-04T03:04:11;9.90;60.40
52799;DHT22;38667;42.872;74.622;2023-12-04T03:06:37;9.80;61.10
52799;DHT22;38667;42.872;74.622;2023-12-04T03:09:03;9.80;61.50
52799;DHT22;38667;42.872;74.622;2023-12-04T03:11:30;9.80;61.30
52799;DHT22;38667;42.872;74.622;2023-12-04T03:13:56;9.80;61.00
52799;DHT22;38667;42.872;74.622;2023-12-04T03:16:25;9.80;61.30
52799;DHT22;38667;42.872;74.622;2023-12-04T03:18:51;9.80;61.50
52799;DHT22;38667;42.872;74.622;2023-12-04T03:21:17;9.70;62.00
52799;DHT22;38667;42.872;74.622;2023-12-04T03:23:44;9.80;61.50
52799;DHT22;38667;42.872;74.622;2023-12-04T03:26:10;9.80;62.10
52799;DHT22;38667;42.872;74.622;2023-12-04T03:28:36;9.80;61.70
52799;DHT22;38667;42.872;74.622;2023-12-04T03:31:04;9.90;60.10
52799;DHT22;38667;42.872;74.622;2023-12-04T03:33:32;10.00;59.90
52799;DHT22;38667;42.872;74.622;2023-12-04T03:35:59;10.00;58.60
52799;DHT22;38667;42.872;74.622;2023-12-04T03:38:26;10.10;59.40
52799;DHT22;38667;42.872;74.622;2023-12-04T03:40:52;10.10;59.30
52799;DHT22;38667;42.872;74.622;2023-12-04T03:43:19;10.10;59.30
52799;DHT22;38667;42.872;74.622;2023-12-04T03:45:45;10.20;59.70
52799;DHT22;38667;42.872;74.622;2023-12-04T03:48:11;10.20;59.10
52799;DHT22;38667;42.872;74.622;2023-12-04T03:50:39;10.30;58.90
52799;DHT22;38667;42.872;74.622;2023-12-04T03:53:06;10.30;58.70
52799;DHT22;38667;42.872;74.622;2023-12-04T03:55:32;10.40;58.60
52799;DHT22;38667;42.872;74.622;2023-12-04T03:57:59;10.50;58.70
52799;DHT22;38667;42.872;74.622;2023-12-04T04:00:25;10.50;57.70
52799;DHT22;38667;42.872;74.622;2023-12-04T04:02:51;10.60;57.80
52799;DHT22;38667;42.872;74.622;2023-12-04T04:05:18;10.60;58.00
52799;DHT22;38667;42.872;74.622;2023-12-04T04:07:46;10.50;57.50
52799;DHT22;38667;42.872;74.622;2023-12-04T04:10:12;10.60;57.50
52799;DHT22;38667;42.872;74.622;2023-12-04T04:12:38;10.60;58.00
52799;DHT22;38667;42.872;74.622;2023-12-04T04:15:05;10.60;58.40
52799;DHT22;38667;42.872;74.622;2023-12-04T04:17:32;10.70;58.40
52799;DHT22;38667;42.872;74.622;2023-12-04T04:19:58;10.70;58.40
52799;DHT22;38667;42.872;74.622;2023-12-04T04:22:25;10.70;58.10
52799;DHT22;38667;42.872;74.622;2023-12-04T04:24:52;10.80;57.90
52799;DHT22;38667;42.872;74.622;2023-12-04T04:27:19;10.80;57.90
52799;DHT22;38667;42.872;74.622;2023-12-04T04:29:45;10.90;57.90
52799;DHT22;38667;42.872;74.622;2023-12-04T04:32:11;11.00;57.50
52799;DHT22;38667;42.872;74.622;2023-12-04T04:34:38;11.00;57.60
52799;DHT22;38667;42.872;74.622;2023-12-04T04:37:04;11.10;57.10
52799;DHT22;38667;42.872;74.622;2023-12-04T04:39:30;11.10;56.10
52799;DHT22;38667;42.872;74.622;2023-12-04T04:41:58;11.20;56.10
52799;DHT22;38667;42.872;74.622;2023-12-04T04:44:25;11.20;56.30
52799;DHT22;38667;42.872;74.622;2023-12-04T04:46:51;11.20;55.90
52799;DHT22;38667;42.872;74.622;2023-12-04T04:49:17;11.20;57.00
52799;DHT22;38667;42.872;74.622;2023-12-04T04:51:44;11.30;56.20
52799;DHT22;38667;42.872;74.622;2023-12-04T04:54:10;11.30;56.10
52799;DHT22;38667;42.872;74.622;2023-12-04T04:56:36;11.40;55.80
52799;DHT22;38667;42.872;74.622;2023-12-04T04:59:04;11.40;55.30
52799;DHT22;38667;42.872;74.622;2023-12-04T05:01:30;11.50;55.30
52799;DHT22;38667;42.872;74.622;2023-12-04T05:03:57;11.50;54.90
52799;DHT22;38667;42.872;74.622;2023-12-04T05:06:23;11.60;55.00
52799;DHT22;38667;42.872;74.622;2023-12-04T05:08:49;11.60;54.60
52799;DHT22;38667;42.872;74.622;2023-12-04T05:11:16;11.60;55.00
52799;DHT22;38667;42.872;74.622;2023-12-04T05:13:42;11.60;55.10
52799;DHT22;38667;42.872;74.622;2023-12-04T05:16:10;11.70;54.60
52799;DHT22;38667;42.872;74.622;2023-12-04T05:18:38;11.70;54.80
52799;DHT22;38667;42.872;74.622;2023-12-04T05:21:08;11.80;55.40
52799;DHT22;38667;42.872;74.622;2023-12-04T05:23:34;11.80;54.80
52799;DHT22;38667;42.872;74.622;2023-12-04T05:26:01;11.80;55.30
52799;DHT22;38667;42.872;74.622;2023-12-04T05:28:27;11.60;56.60
52799;DHT22;38667;42.872;74.622;2023-12-04T05:30:54;11.50;57.50
52799;DHT22;38667;42.872;74.622;2023-12-04T05:33:22;11.20;57.20
52799;DHT22;38667;42.872;74.622;2023-12-04T05:35:49;11.30;57.40
52799;DHT22;38667;42.872;74.622;2023-12-04T05:38:15;11.20;57.00
52799;DHT22;38667;42.872;74.622;2023-12-04T05:40:41;11.20;57.30
52799;DHT22;38667;42.872;74.622;2023-12-04T05:43:08;11.20;57.10
52799;DHT22;38667;42.872;74.622;2023-12-04T05:45:34;11.30;57.20
52799;DHT22;38667;42.872;74.622;2023-12-04T05:48:00;11.30;57.40
52799;DHT22;38667;42.872;74.622;2023-12-04T05:50:28;11.40;56.80
52799;DHT22;38667;42.872;74.622;2023-12-04T05:52:55;11.40;56.30
52799;DHT22;38667;42.872;74.622;2023-12-04T05:55:21;11.50;56.20
52799;DHT22;38667;42.872;74.622;2023-12-04T05:57:47;11.50;55.70
52799;DHT22;38667;42.872;74.622;2023-12-04T06:00:14;11.50;55.40
52799;DHT22;38667;42.872;74.622;2023-12-04T06:02:42;11.50;56.20
52799;DHT22;38667;42.872;74.622;2023-12-04T06:05:09;11.40;55.40
52799;DHT22;38667;42.872;74.622;2023-12-04T06:07:37;11.50;56.20
52799;DHT22;38667;42.872;74.622;2023-12-04T06:10:05;11.60;56.00
52799;DHT22;38667;42.872;74.622;2023-12-04T06:12:32;11.60;56.40
52799;DHT22;38667;42.872;74.622;2023-12-04T06:14:58;11.60;55.80
52799;DHT22;38667;42.872;74.622;2023-12-04T06:17:24;11.60;55.90
52799;DHT22;38667;42.872;74.622;2023-12-04T06:19:51;11.60;55.40
52799;DHT22;38667;42.872;74.622;2023-12-04T06:22:18;11.70;55.40
52799;DHT22;38667;42.872;74.622;2023-12-04T06:24:46;11.70;54.90
52799;DHT22;38667;42.872;74.622;2023-12-04T06:27:15;11.80;55.10
52799;DHT22;38667;42.872;74.622;2023-12-04T06:29:43;11.90;54.90
52799;DHT22;38667;42.872;74.622;2023-12-04T06:32:11;12.00;54.20
52799;DHT22;38667;42.872;74.622;2023-12-04T06:34:38;12.20;53.90
52799;DHT22;38667;42.872;74.622;2023-12-04T06:37:09;12.30;53.50
52799;DHT22;38667;42.872;74.622;2023-12-04T06:39:37;12.50;53.30
52799;DHT22;38667;42.872;74.622;2023-12-04T06:42:07;12.60;52.50
52799;DHT22;38667;42.872;74.622;2023-12-04T06:44:34;12.70;52.40
52799;DHT22;38667;42.872;74.622;2023-12-04T06:47:01;12.80;51.70
52799;DHT22;38667;42.872;74.622;2023-12-04T06:49:30;12.80;51.90
52799;DHT22;38667;42.872;74.622;2023-12-04T06:51:57;12.90;51.30
52799;DHT22;38667;42.872;74.622;2023-12-04T06:54:24;12.90;52.00
52799;DHT22;38667;42.872;74.622;2023-12-04T06:56:50;13.20;51.70
52799;DHT22;38667;42.872;74.622;2023-12-04T06:59:18;13.30;50.70
52799;DHT22;38667;42.872;74.622;2023-12-04T07:01:45;13.30;51.10
52799;DHT22;38667;42.872;74.622;2023-12-04T07:04:11;13.50;50.40
52799;DHT22;38667;42.872;74.622;2023-12-04T07:06:38;13.60;50.60
52799;DHT22;38667;42.872;74.622;2023-12-04T07:09:05;13.80;50.40
52799;DHT22;38667;42.872;74.622;2023-12-04T07:11:31;14.00;50.30
52799;DHT22;38667;42.872;74.622;2023-12-04T07:13:58;14.20;49.70
52799;DHT22;38667;42.872;74.622;2023-12-04T07:16:26;14.30;49.00
52799;DHT22;38667;42.872;74.622;2023-12-04T07:18:52;14.30;49.60
52799;DHT22;38667;42.872;74.622;2023-12-04T07:21:18;14.30;49.50
52799;DHT22;38667;42.872;74.622;2023-12-04T07:23:45;14.40;49.50
52799;DHT22;38667;42.872;74.622;2023-12-04T07:26:11;14.50;49.30
52799;DHT22;38667;42.872;74.622;2023-12-04T07:28:37;14.50;49.30
52799;DHT22;38667;42.872;74.622;2023-12-04T07:31:04;14.50;49.10
52799;DHT22;38667;42.872;74.622;2023-12-04T07:33:32;14.30;49.70
52799;DHT22;38667;42.872;74.622;2023-12-04T07:35:59;14.20;50.30
52799;DHT22;38667;42.872;74.622;2023-12-04T07:38:25;14.20;50.60
52799;DHT22;38667;42.872;74.622;2023-12-04T07:40:51;14.10;50.60
52799;DHT22;38667;42.872;74.622;2023-12-04T07:43:18;14.20;51.50
52799;DHT22;38667;42.872;74.622;2023-12-04T07:45:44;14.40;51.00
52799;DHT22;38667;42.872;74.622;2023-12-04T07:48:10;14.50;50.80
52799;DHT22;38667;42.872;74.622;2023-12-04T07:50:38;14.40;51.60
52799;DHT22;38667;42.872;74.622;2023-12-04T07:53:05;14.50;51.90
52799;DHT22;38667;42.872;74.622;2023-12-04T07:55:32;14.60;51.30
52799;DHT22;38667;42.872;74.622;2023-12-04T07:57:58;14.60;50.10
52799;DHT22;38667;42.872;74.622;2023-12-04T08:00:24;14.60;51.10
52799;DHT22;38667;42.872;74.622;2023-12-04T08:02:51;14.60;51.40
52799;DHT22;38667;42.872;74.622;2023-12-04T08:05:17;14.60;52.00
52799;DHT22;38667;42.872;74.622;2023-12-04T08:07:46;14.50;52.20
52799;DHT22;38667;42.872;74.622;2023-12-04T08:10:12;14.30;52.50
52799;DHT22;38667;42.872;74.622;2023-12-04T08:12:39;14.10;53.10
52799;DHT22;38667;42.872;74.622;2023-12-04T08:15:06;14.00;53.40
52799;DHT22;38667;42.872;74.622;2023-12-04T08:17:32;13.80;53.80
52799;DHT22;38667;42.872;74.622;2023-12-04T08:19:59;13.70;53.40
52799;DHT22;38667;42.872;74.622;2023-12-04T08:22:26;13.60;53.60
52799;DHT22;38667;42.872;74.622;2023-12-04T08:24:54;13.70;54.00
52799;DHT22;38667;42.872;74.622;2023-12-04T08:27:20;13.60;53.70
52799;DHT22;38667;42.872;74.622;2023-12-04T08:29:46;13.60;54.00
52799;DHT22;38667;42.872;74.622;2023-12-04T08:32:13;13.50;54.20
52799;DHT22;38667;42.872;74.622;2023-12-04T08:34:39;13.50;54.50
52799;DHT22;38667;42.872;74.622;2023-12-04T08:37:05;13.30;55.20
52799;DHT22;38667;42.872;74.622;2023-12-04T08:39:32;13.30;55.30
52799;DHT22;38667;42.872;74.622;2023-12-04T08:42:00;13.20;55.20
52799;DHT22;38667;42.872;74.622;2023-12-04T08:44:26;13.20;55.50
52799;DHT22;38667;42.872;74.622;2023-12-04T08:46:53;13.10;55.40
52799;DHT22;38667;42.872;74.622;2023-12-04T08:49:19;13.00;55.60
52799;DHT22;38667;42.872;74.622;2023-12-04T08:51:46;13.10;55.60
52799;DHT22;38667;42.872;74.622;2023-12-04T08:54:13;13.10;56.20
52799;DHT22;38667;42.872;74.622;2023-12-04T08:56:39;13.00;56.60
52799;DHT22;38667;42.872;74.622;2023-12-04T08:59:07;13.00;56.50
52799;DHT22;38667;42.872;74.622;2023-12-04T09:01:34;13.00;56.20
52799;DHT22;38667;42.872;74.622;2023-12-04T09:04:00;12.90;56.60
52799;DHT22;38667;42.872;74.622;2023-12-04T09:06:28;12.90;56.80
52799;DHT22;38667;42.872;74.622;2023-12-04T09:08:54;12.90;56.60
52799;DHT22;38667;42.872;74.622;2023-12-04T09:11:20;12.80;57.30
52799;DHT22;38667;42.872;74.622;2023-12-04T09:13:47;12.80;57.30
52799;DHT22;38667;42.872;74.622;2023-12-04T09:16:15;12.70;57.10
52799;DHT22;38667;42.872;74.622;2023-12-04T09:18:41;12.80;57.50
52799;DHT22;38667;42.872;74.622;2023-12-04T09:21:08;12.70;57.30
52799;DHT22;38667;42.872;74.622;2023-12-04T09:23:35;12.60;57.60
52799;DHT22;38667;42.872;74.622;2023-12-04T09:26:01;12.50;57.70
52799;DHT22;38667;42.872;74.622;2023-12-04T09:28:27;12.60;58.10
52799;DHT22;38667;42.872;74.622;2023-12-04T09:30:54;12.60;58.00
52799;DHT22;38667;42.872;74.622;2023-12-04T09:33:22;12.60;57.90
52799;DHT22;38667;42.872;74.622;2023-12-04T09:35:48;12.70;57.80
52799;DHT22;38667;42.872;74.622;2023-12-04T09:38:14;12.70;57.80
52799;DHT22;38667;42.872;74.622;2023-12-04T09:40:41;12.60;57.40
52799;DHT22;38667;42.872;74.622;2023-12-04T09:43:07;12.70;57.30
52799;DHT22;38667;42.872;74.622;2023-12-04T09:45:34;12.70;57.00
52799;DHT22;38667;42.872;74.622;2023-12-04T09:48:01;12.70;57.00
52799;DHT22;38667;42.872;74.622;2023-12-04T09:50:29;12.60;57.20
52799;DHT22;38667;42.872;74.622;2023-12-04T09:52:56;12.60;56.70
52799;DHT22;38667;42.872;74.622;2023-12-04T09:55:25;12.60;56.90
52799;DHT22;38667;42.872;74.622;2023-12-04T09:57:51;12.50;57.10
52799;DHT22;38667;42.872;74.622;2023-12-04T10:00:18;12.50;57.40
52799;DHT22;38667;42.872;74.622;2023-12-04T10:02:45;12.50;57.90
52799;DHT22;38667;42.872;74.622;2023-12-04T10:05:12;12.40;58.30
52799;DHT22;38667;42.872;74.622;2023-12-04T10:07:40;12.30;58.40
52799;DHT22;38667;42.872;74.622;2023-12-04T10:10:07;12.30;58.40
52799;DHT22;38667;42.872;74.622;2023-12-04T10:12:33;12.20;58.70
52799;DHT22;38667;42.872;74.622;2023-12-04T10:15:06;12.20;59.00
52799;DHT22;38667;42.872;74.622;2023-12-04T10:17:34;12.20;59.30
52799;DHT22;38667;42.872;74.622;2023-12-04T10:20:05;12.10;59.40
52799;DHT22;38667;42.872;74.622;2023-12-04T10:22:32;12.10;59.50
52799;DHT22;38667;42.872;74.622;2023-12-04T10:25:00;12.00;59.80
52799;DHT22;38667;42.872;74.622;2023-12-04T10:27:39;11.90;60.20
52799;DHT22;38667;42.872;74.622;2023-12-04T10:30:07;11.90;60.10
52799;DHT22;38667;42.872;74.622;2023-12-04T10:32:36;11.90;60.10
52799;DHT22;38667;42.872;74.622;2023-12-04T10:35:03;11.90;60.20
52799;DHT22;38667;42.872;74.622;2023-12-04T10:37:31;11.80;60.40
52799;DHT22;38667;42.872;74.622;2023-12-04T10:39:59;11.80;60.50
52799;DHT22;38667;42.872;74.622;2023-12-04T10:42:26;11.70;60.60
52799;DHT22;38667;42.872;74.622;2023-12-04T10:44:54;11.70;60.30
52799;DHT22;38667;42.872;74.622;2023-12-04T10:47:21;11.70;60.90
52799;DHT22;38667;42.872;74.622;2023-12-04T10:49:49;11.60;61.00
52799;DHT22;38667;42.872;74.622;2023-12-04T10:52:16;11.70;60.60
52799;DHT22;38667;42.872;74.622;2023-12-04T10:54:43;11.70;60.70
52799;DHT22;38667;42.872;74.622;2023-12-04T10:57:11;11.70;60.80
52799;DHT22;38667;42.872;74.622;2023-12-04T10:59:39;11.70;60.70
52799;DHT22;38667;42.872;74.622;2023-12-04T11:02:06;11.50;60.90
52799;DHT22;38667;42.872;74.622;2023-12-04T11:04:36;11.50;61.10
52799;DHT22;38667;42.872;74.622;2023-12-04T11:07:05;11.40;61.40
52799;DHT22;38667;42.872;74.622;2023-12-04T11:09:35;11.40;61.80
52799;DHT22;38667;42.872;74.622;2023-12-04T11:12:05;11.20;61.90
52799;DHT22;38667;42.872;74.622;2023-12-04T11:14:39;11.30;62.10
52799;DHT22;38667;42.872;74.622;2023-12-04T11:17:09;11.20;61.90
52799;DHT22;38667;42.872;74.622;2023-12-04T11:19:47;11.20;62.10
52799;DHT22;38667;42.872;74.622;2023-12-04T11:22:18;11.10;62.40
52799;DHT22;38667;42.872;74.622;2023-12-04T11:24:45;11.10;62.50
52799;DHT22;38667;42.872;74.622;2023-12-04T11:27:11;11.00;63.00
52799;DHT22;38667;42.872;74.622;2023-12-04T11:29:40;11.00;63.20
52799;DHT22;38667;42.872;74.622;2023-12-04T11:32:07;11.00;63.30
52799;DHT22;38667;42.872;74.622;2023-12-04T11:34:35;10.90;63.20
52799;DHT22;38667;42.872;74.622;2023-12-04T11:37:02;11.00;63.20
52799;DHT22;38667;42.872;74.622;2023-12-04T11:39:29;10.90;63.40
52799;DHT22;38667;42.872;74.622;2023-12-04T11:41:55;10.90;63.60
52799;DHT22;38667;42.872;74.622;2023-12-04T11:44:21;10.80;63.70
52799;DHT22;38667;42.872;74.622;2023-12-04T11:47:05;10.80;64.00
52799;DHT22;38667;42.872;74.622;2023-12-04T11:49:32;10.70;64.30
52799;DHT22;38667;42.872;74.622;2023-12-04T11:51:59;10.70;63.90
52799;DHT22;38667;42.872;74.622;2023-12-04T11:54:27;10.70;63.90
52799;DHT22;38667;42.872;74.622;2023-12-04T11:57:19;10.70;64.00
52799;DHT22;38667;42.872;74.622;2023-12-04T11:59:45;10.70;63.90
52799;DHT22;38667;42.872;74.622;2023-12-04T12:02:13;10.70;63.90
52799;DHT22;38667;42.872;74.622;2023-12-04T12:04:41;10.70;64.30
52799;DHT22;38667;42.872;74.622;2023-12-04T12:07:07;10.60;65.10
52799;DHT22;38667;42.872;74.622;2023-12-04T12:09:34;10.60;64.50
52799;DHT22;38667;42.872;74.622;2023-12-04T12:12:01;10.60;64.40
52799;DHT22;38667;42.872;74.622;2023-12-04T12:14:28;10.60;64.50
52799;DHT22;38667;42.872;74.622;2023-12-04T12:16:55;10.60;64.50
52799;DHT22;38667;42.872;74.622;2023-12-04T12:19:23;10.60;64.60
52799;DHT22;38667;42.872;74.622;2023-12-04T12:21:50;10.50;65.00
52799;DHT22;38667;42.872;74.622;2023-12-04T12:24:16;10.50;65.80
52799;DHT22;38667;42.872;74.622;2023-12-04T12:26:42;10.50;65.30
52799;DHT22;38667;42.872;74.622;2023-12-04T12:29:09;10.40;65.20
52799;DHT22;38667;42.872;74.622;2023-12-04T12:31:35;10.40;65.40
52799;DHT22;38667;42.872;74.622;2023-12-04T12:34:02;10.40;65.40
52799;DHT22;38667;42.872;74.622;2023-12-04T12:36:30;10.30;66.20
52799;DHT22;38667;42.872;74.622;2023-12-04T12:38:56;10.30;66.20
52799;DHT22;38667;42.872;74.622;2023-12-04T12:41:23;10.20;66.00
52799;DHT22;38667;42.872;74.622;2023-12-04T12:43:52;10.20;66.30
52799;DHT22;38667;42.872;74.622;2023-12-04T12:46:18;10.10;66.70
52799;DHT22;38667;42.872;74.622;2023-12-04T12:48:45;10.10;66.90
52799;DHT22;38667;42.872;74.622;2023-12-04T12:51:13;10.10;66.80
52799;DHT22;38667;42.872;74.622;2023-12-04T12:53:41;10.00;67.00
52799;DHT22;38667;42.872;74.622;2023-12-04T12:56:10;10.10;67.00
52799;DHT22;38667;42.872;74.622;2023-12-04T12:58:37;10.10;66.90
52799;DHT22;38667;42.872;74.622;2023-12-04T13:01:03;10.00;66.60
52799;DHT22;38667;42.872;74.622;2023-12-04T13:03:30;10.10;66.70
52799;DHT22;38667;42.872;74.622;2023-12-04T13:05:57;10.00;66.70
52799;DHT22;38667;42.872;74.622;2023-12-04T13:08:23;9.90;67.20
52799;DHT22;38667;42.872;74.622;2023-12-04T13:10:52;9.90;67.50
52799;DHT22;38667;42.872;74.622;2023-12-04T13:13:19;9.90;67.60
52799;DHT22;38667;42.872;74.622;2023-12-04T13:15:45;9.80;67.50
52799;DHT22;38667;42.872;74.622;2023-12-04T13:18:12;9.90;67.50
52799;DHT22;38667;42.872;74.622;2023-12-04T13:20:38;9.90;67.40
52799;DHT22;38667;42.872;74.622;2023-12-04T13:23:04;9.90;67.80
52799;DHT22;38667;42.872;74.622;2023-12-04T13:25:31;9.90;67.40
52799;DHT22;38667;42.872;74.622;2023-12-04T13:27:59;9.80;68.00
52799;DHT22;38667;42.872;74.622;2023-12-04T13:30:25;9.70;68.10
52799;DHT22;38667;42.872;74.622;2023-12-04T13:32:51;9.70;68.70
52799;DHT22;38667;42.872;74.622;2023-12-04T13:35:18;9.70;68.80
52799;DHT22;38667;42.872;74.622;2023-12-04T13:37:44;9.60;68.90
52799;DHT22;38667;42.872;74.622;2023-12-04T13:40:11;9.60;68.90
52799;DHT22;38667;42.872;74.622;2023-12-04T13:42:37;9.60;69.00
52799;DHT22;38667;42.872;74.622;2023-12-04T13:45:06;9.50;69.50
52799;DHT22;38667;42.872;74.622;2023-12-04T13:47:32;9.50;69.50
52799;DHT22;38667;42.872;74.622;2023-12-04T13:49:59;9.60;69.30
52799;DHT22;38667;42.872;74.622;2023-12-04T13:52:25;9.50;69.20
52799;DHT22;38667;42.872;74.622;2023-12-04T13:54:51;9.60;69.20
52799;DHT22;38667;42.872;74.622;2023-12-04T13:57:18;9.60;68.60
52799;DHT22;38667;42.872;74.622;2023-12-04T13:59:44;9.70;67.90
52799;DHT22;38667;42.872;74.622;2023-12-04T14:02:12;9.80;67.60
52799;DHT22;38667;42.872;74.622;2023-12-04T14:04:38;9.90;67.10
52799;DHT22;38667;42.872;74.622;2023-12-04T14:07:05;9.90;66.70
52799;DHT22;38667;42.872;74.622;2023-12-04T14:09:31;9.90;66.60
52799;DHT22;38667;42.872;74.622;2023-12-04T14:11:57;9.90;66.50
52799;DHT22;38667;42.872;74.622;2023-12-04T14:14:24;9.90;66.30
52799;DHT22;38667;42.872;74.622;2023-12-04T14:16:50;10.00;65.70
52799;DHT22;38667;42.872;74.622;2023-12-04T14:19:18;10.00;65.90
52799;DHT22;38667;42.872;74.622;2023-12-04T14:21:44;9.90;66.80
52799;DHT22;38667;42.872;74.622;2023-12-04T14:24:11;9.80;67.10
52799;DHT22;38667;42.872;74.622;2023-12-04T14:26:37;9.80;68.00
52799;DHT22;38667;42.872;74.622;2023-12-04T14:29:03;9.80;68.00
52799;DHT22;38667;42.872;74.622;2023-12-04T14:31:30;9.70;68.20
52799;DHT22;38667;42.872;74.622;2023-12-04T14:33:56;9.70;68.20
52799;DHT22;38667;42.872;74.622;2023-12-04T14:36:25;9.70;68.20
52799;DHT22;38667;42.872;74.622;2023-12-04T14:38:51;9.80;68.10
52799;DHT22;38667;42.872;74.622;2023-12-04T14:41:19;9.80;68.10
52799;DHT22;38667;42.872;74.622;2023-12-04T14:43:46;9.70;68.10
52799;DHT22;38667;42.872;74.622;2023-12-04T14:46:12;9.70;68.30
52799;DHT22;38667;42.872;74.622;2023-12-04T14:48:39;9.70;68.30
52799;DHT22;38667;42.872;74.622;2023-12-04T14:51:05;9.80;68.00
52799;DHT22;38667;42.872;74.622;2023-12-04T14:53:33;9.80;68.00
52799;DHT22;38667;42.872;74.622;2023-12-04T14:56:00;9.70;68.10
52799;DHT22;38667;42.872;74.622;2023-12-04T14:58:26;9.80;68.00
52799;DHT22;38667;42.872;74.622;2023-12-04T15:00:52;9.80;67.80
52799;DHT22;38667;42.872;74.622;2023-12-04T15:03:19;9.80;67.90
52799;DHT22;38667;42.872;74.622;2023-12-04T15:05:45;9.80;67.50
52799;DHT22;38667;42.872;74.622;2023-12-04T15:08:11;9.90;66.80
52799;DHT22;38667;42.872;74.622;2023-12-04T15:10:39;9.90;66.40
52799;DHT22;38667;42.872;74.622;2023-12-04T15:13:06;10.00;66.50
52799;DHT22;38667;42.872;74.622;2023-12-04T15:15:32;10.00;66.40
52799;DHT22;38667;42.872;74.622;2023-12-04T15:17:58;9.90;66.70
52799;DHT22;38667;42.872;74.622;2023-12-04T15:20:25;9.80;67.00
52799;DHT22;38667;42.872;74.622;2023-12-04T15:22:51;9.80;67.00
52799;DHT22;38667;42.872;74.622;2023-12-04T15:25:18;9.80;67.10